Time;durP1;ratioP1;P1;durP2;ratioP2;P2;SDS_P1;SDS_P2;PMS_P1;PMS_P2;Temp;Humidity;BMP_temperature;BMP_pressure;BME280_temperature;BME280_humidity;BME280_pressure;Samples;Min_cycle;Max_cycle;Signal;HPM_P1;HPM_P2
2021/08/02 00:00:38;;;;;;;;;5.50;2.00;;;;;20.48;57.02;101049.91;5047685;28;45664;-64
2021/08/02 00:03:28;;;;;;;;;1.75;1.00;;;;;20.46;57.46;101042.09;5060209;28;46133;-64
2021/08/02 00:05:58;;;;;;;;;6.25;2.75;;;;;20.47;57.37;101041.16;5060312;28;45637;-64
2021/08/02 00:08:25;;;;;;;;;1.00;1.00;;;;;20.49;57.66;101038.41;5060322;28;45481;-64
2021/08/02 00:10:52;;;;;;;;;2.00;2.00;;;;;20.45;57.38;101035.13;5060521;28;45294;-63
2021/08/02 00:13:29;;;;;;;;;2.25;2.25;;;;;20.46;58.32;101033.31;5059978;28;46346;-63
2021/08/02 00:16:01;;;;;;;;;3.25;1.50;;;;;20.46;57.83;101035.97;5060015;28;45503;-64
2021/08/02 00:18:27;;;;;;;;;1.75;1.75;;;;;20.40;58.39;101034.50;5060397;28;45333;-63
2021/08/02 00:20:54;;;;;;;;;1.25;1.25;;;;;20.33;57.84;101034.06;5060042;28;45157;-63
2021/08/02 00:23:21;;;;;;;;;3.75;2.00;;;;;20.27;58.57;101036.25;5060338;28;46132;-63
2021/08/02 00:25:47;;;;;;;;;3.25;3.00;;;;;20.24;59.44;101032.03;5058961;28;45389;-63
2021/08/02 00:28:13;;;;;;;;;1.75;1.75;;;;;20.19;58.36;101034.06;5060258;28;45273;-64
2021/08/02 00:30:39;;;;;;;;;2.00;2.00;;;;;20.14;59.44;101030.03;5060160;28;45467;-64
2021/08/02 00:33:08;;;;;;;;;5.50;2.75;;;;;20.11;59.28;101033.72;5059937;28;45305;-65
2021/08/02 00:35:38;;;;;;;;;2.75;2.50;;;;;20.09;59.20;101034.75;5060087;28;45329;-65
2021/08/02 00:38:08;;;;;;;;;2.00;2.00;;;;;20.06;59.10;101030.53;5060329;28;45309;-63
2021/08/02 00:40:49;;;;;;;;;3.75;2.50;;;;;20.11;59.21;101039.00;5059896;28;45246;-63
2021/08/02 00:43:42;;;;;;;;;2.00;2.00;;;;;20.14;59.23;101044.06;5059888;28;45916;-63
2021/08/02 00:46:11;;;;;;;;;6.25;3.00;;;;;20.14;59.56;101048.50;5059735;28;45391;-63
2021/08/02 00:48:46;;;;;;;;;2.25;2.00;;;;;20.07;59.60;101034.88;5059898;28;45428;-63
2021/08/02 00:51:13;;;;;;;;;4.00;2.50;;;;;20.04;60.14;101041.19;5059938;28;45371;-63
2021/08/02 00:53:41;;;;;;;;;2.75;1.75;;;;;19.99;61.45;101039.75;5059560;28;45303;-64
2021/08/02 00:56:06;;;;;;;;;2.25;2.00;;;;;19.88;60.37;101032.50;5059932;28;45243;-64
2021/08/02 00:58:33;;;;;;;;;3.00;1.75;;;;;19.88;60.63;101031.66;5060151;28;45443;-64
2021/08/02 01:01:00;;;;;;;;;1.75;1.75;;;;;19.86;60.54;101039.69;5059989;28;45500;-64
2021/08/02 01:03:29;;;;;;;;;3.00;3.00;;;;;19.81;62.96;101038.25;5057207;28;46218;-64
2021/08/02 01:05:55;;;;;;;;;4.50;4.25;;;;;19.77;62.46;101039.38;5059400;28;45652;-64
2021/08/02 01:08:22;;;;;;;;;4.00;3.00;;;;;19.69;62.62;101040.69;5059579;28;45508;-65
2021/08/02 01:10:59;;;;;;;;;4.00;3.75;;;;;19.62;62.97;101049.06;5059610;28;45313;-63
2021/08/02 01:13:28;;;;;;;;;6.25;4.50;;;;;19.59;63.33;101042.19;5058613;28;46321;-63
2021/08/02 01:15:56;;;;;;;;;3.75;3.00;;;;;19.57;63.43;101045.84;5058224;28;45593;-61
2021/08/02 01:18:23;;;;;;;;;2.75;2.00;;;;;19.58;63.25;101045.75;5060959;28;45307;-62
2021/08/02 01:20:51;;;;;;;;;2.75;2.75;;;;;19.57;64.40;101044.06;5061740;28;45472;-62
2021/08/02 01:23:18;;;;;;;;;3.50;2.50;;;;;19.55;63.40;101047.72;5062526;28;46476;-62
2021/08/02 01:25:44;;;;;;;;;19.75;17.75;;;;;19.56;63.70;101049.44;5061713;28;45279;-62
2021/08/02 01:28:15;;;;;;;;;3.67;3.67;;;;;19.56;63.14;101046.78;5062587;28;45192;-63
2021/08/02 01:30:41;;;;;;;;;2.50;2.50;;;;;19.55;62.64;101051.22;5061530;28;45616;-63
2021/08/02 01:33:07;;;;;;;;;4.50;4.50;;;;;19.53;63.65;101054.84;5062233;28;45556;-62
2021/08/02 01:35:34;;;;;;;;;4.25;3.50;;;;;19.48;64.32;101049.88;5061811;28;45216;-62
2021/08/02 01:38:00;;;;;;;;;5.25;4.00;;;;;19.45;63.52;101045.63;5062623;28;45322;-64
2021/08/02 01:40:27;;;;;;;;;3.75;3.75;;;;;19.44;64.13;101037.81;5060788;28;45479;-62
2021/08/02 01:42:52;;;;;;;;;4.75;4.75;;;;;19.45;63.51;101040.38;5062608;28;46309;-68
2021/08/02 01:45:18;;;;;;;;;5.00;4.00;;;;;19.48;64.01;101041.97;5062074;28;45370;-63
2021/08/02 01:48:02;;;;;;;;;4.00;4.00;;;;;19.49;64.09;101042.81;5062777;28;45434;-66
2021/08/02 01:50:35;;;;;;;;;5.00;5.00;;;;;19.45;63.92;101039.50;5062338;28;45272;-63
2021/08/02 01:53:19;;;;;;;;;4.00;4.00;;;;;19.43;64.25;101044.03;5062574;28;46292;-63
2021/08/02 01:55:55;;;;;;;;;5.00;3.00;;;;;19.39;64.37;101043.34;5050943;28;45224;-63
2021/08/02 01:58:21;;;;;;;;;4.25;4.25;;;;;19.36;64.09;101045.31;5062373;28;45283;-63
2021/08/02 02:00:49;;;;;;;;;5.00;3.00;;;;;19.34;65.01;101044.56;5062614;28;45326;-64
2021/08/02 02:03:20;;;;;;;;;5.00;5.00;;;;;19.32;64.68;101039.38;5062214;28;45368;-62
2021/08/02 02:05:50;;;;;;;;;4.75;4.00;;;;;19.28;65.02;101039.66;5062359;28;45253;-65
2021/08/02 02:08:20;;;;;;;;;4.25;3.00;;;;;19.26;65.04;101037.13;5062384;28;45383;-63
2021/08/02 02:10:55;;;;;;;;;5.50;5.50;;;;;19.25;65.50;101035.41;5062282;28;45467;-63
2021/08/02 02:13:28;;;;;;;;;5.00;4.50;;;;;19.26;64.88;101046.81;5049567;28;45572;-65
2021/08/02 02:15:57;;;;;;;;;5.75;5.75;;;;;19.26;65.09;101045.03;5062048;28;45811;-65
2021/08/02 02:18:23;;;;;;;;;6.50;6.50;;;;;19.20;65.81;101044.50;5062321;28;45327;-64
2021/08/02 02:20:50;;;;;;;;;3.00;3.00;;;;;19.15;65.98;101043.00;5061935;28;45307;-67
2021/08/02 02:23:16;;;;;;;;;5.50;4.25;;;;;19.12;65.70;101031.78;5062229;28;45427;-64
2021/08/02 02:25:46;;;;;;;;;5.00;5.00;;;;;19.11;65.66;101025.69;5062066;28;45397;-64
2021/08/02 02:28:12;;;;;;;;;6.00;5.25;;;;;19.12;65.72;101037.91;5062182;28;45250;-64
2021/08/02 02:30:40;;;;;;;;;5.00;5.00;;;;;19.10;65.74;101029.25;5060765;28;45561;-63
2021/08/02 02:33:07;;;;;;;;;5.25;5.25;;;;;19.09;66.24;101031.97;5060566;28;47309;-66
2021/08/02 02:35:33;;;;;;;;;8.50;5.75;;;;;19.06;66.28;101033.00;5061490;28;45230;-64
2021/08/02 02:37:59;;;;;;;;;4.75;4.00;;;;;19.06;66.36;101043.56;5062218;28;45184;-63
2021/08/02 02:40:26;;;;;;;;;6.00;5.00;;;;;19.08;65.66;101036.41;5061729;28;45503;-64
2021/08/02 02:42:51;;;;;;;;;4.00;4.00;;;;;19.09;65.60;101038.09;5072440;28;45160;-63
2021/08/02 02:45:18;;;;;;;;;5.50;4.50;;;;;19.10;66.03;101039.78;5061980;28;45485;-63
2021/08/02 02:47:45;;;;;;;;;3.50;3.25;;;;;19.05;65.93;101033.09;5061996;28;45252;-63
2021/08/02 02:50:11;;;;;;;;;6.00;5.00;;;;;19.05;66.57;101041.00;5061492;28;45276;-63
2021/08/02 02:52:37;;;;;;;;;8.25;5.50;;;;;19.04;66.74;101044.56;5061862;28;46508;-63
2021/08/02 02:55:05;;;;;;;;;5.00;4.50;;;;;19.01;66.68;101056.13;5061473;28;45251;-63
2021/08/02 02:57:30;;;;;;;;;5.00;5.00;;;;;19.01;66.63;101039.47;5061861;28;45250;-64
2021/08/02 02:59:56;;;;;;;;;7.50;6.00;;;;;19.04;66.67;101037.53;5060396;28;45399;-63
2021/08/02 03:02:22;;;;;;;;;4.50;3.50;;;;;19.02;66.79;101044.66;5061160;28;45387;-63
2021/08/02 03:04:53;;;;;;;;;6.00;6.00;;;;;19.02;66.78;101044.66;5061306;28;45691;-63
2021/08/02 03:07:18;;;;;;;;;4.50;3.75;;;;;18.96;66.88;101045.00;5061755;28;45437;-64
2021/08/02 03:09:48;;;;;;;;;4.75;3.25;;;;;18.96;67.02;101049.41;5061348;28;45287;-64
2021/08/02 03:12:13;;;;;;;;;5.25;3.75;;;;;18.95;67.05;101039.81;5052231;28;46019;-63
2021/08/02 03:14:39;;;;;;;;;5.00;4.75;;;;;18.96;67.36;101042.38;5061479;28;45329;-63
2021/08/02 03:17:06;;;;;;;;;5.50;4.50;;;;;18.98;67.37;101052.81;5061482;28;45460;-63
2021/08/02 03:19:31;;;;;;;;;5.75;4.00;;;;;18.98;67.85;101053.66;5061024;28;45278;-63
2021/08/02 03:21:58;;;;;;;;;6.50;6.00;;;;;18.98;67.21;101048.38;5061183;28;46038;-63
2021/08/02 03:24:45;;;;;;;;;6.75;5.25;;;;;19.02;67.31;101057.84;5061297;28;45234;-63
2021/08/02 03:27:16;;;;;;;;;5.25;3.50;;;;;19.02;67.02;101056.97;5061219;28;45302;-63
2021/08/02 03:29:46;;;;;;;;;8.00;4.00;;;;;19.02;67.66;101060.47;5061360;28;45278;-63
2021/08/02 03:32:16;;;;;;;;;6.75;4.00;;;;;19.04;67.64;101058.59;5060514;28;46274;-63
2021/08/02 03:34:43;;;;;;;;;7.50;3.50;;;;;19.06;67.31;101050.59;5059267;28;46639;-63
2021/08/02 03:37:12;;;;;;;;;7.25;6.00;;;;;19.05;67.42;101062.06;5060964;28;45370;-67
2021/08/02 03:39:39;;;;;;;;;7.00;6.00;;;;;19.07;67.84;101071.59;5061063;28;45335;-63
2021/08/02 03:42:07;;;;;;;;;5.50;4.25;;;;;19.07;67.36;101061.06;5060424;28;47291;-63
2021/08/02 03:44:33;;;;;;;;;5.25;5.25;;;;;19.07;67.71;101063.69;5060857;28;45569;-63
2021/08/02 03:47:00;;;;;;;;;5.25;4.50;;;;;19.06;67.61;101069.88;5060508;28;45599;-63
2021/08/02 03:49:26;;;;;;;;;5.00;4.25;;;;;19.03;67.82;101064.81;5060758;28;45535;-63
2021/08/02 03:51:54;;;;;;;;;6.75;5.50;;;;;19.00;68.22;101072.00;5060655;28;45246;-63
2021/08/02 03:54:19;;;;;;;;;4.00;4.00;;;;;18.97;67.95;101069.56;5060545;28;45379;-64
2021/08/02 03:56:45;;;;;;;;;6.50;3.75;;;;;18.94;68.77;101070.59;5060577;28;45524;-63
2021/08/02 03:59:11;;;;;;;;;4.50;4.50;;;;;18.89;68.46;101083.16;5060739;28;45326;-63
2021/08/02 04:01:43;;;;;;;;;7.00;4.25;;;;;18.87;68.85;101078.94;5058784;28;46137;-63
2021/08/02 04:04:09;;;;;;;;;7.25;6.00;;;;;18.87;68.69;101077.16;5060283;28;46352;-63
2021/08/02 04:06:36;;;;;;;;;6.50;5.75;;;;;18.87;69.21;101078.94;5060520;28;45414;-63
2021/08/02 04:09:03;;;;;;;;;6.25;5.00;;;;;18.81;69.53;101085.38;5060652;28;45535;-62
2021/08/02 04:11:29;;;;;;;;;6.50;5.75;;;;;18.73;70.39;101095.50;5059998;28;47026;-60
2021/08/02 04:13:54;;;;;;;;;4.75;4.75;;;;;18.67;70.14;101095.84;5059861;28;45181;-62
2021/08/02 04:16:19;;;;;;;;;8.00;8.00;;;;;18.66;69.72;101102.91;5058951;28;45345;-63
2021/08/02 04:18:46;;;;;;;;;20.75;19.75;;;;;18.64;70.74;101098.66;5060081;28;45461;-63
2021/08/02 04:21:11;;;;;;;;;7.25;6.75;;;;;18.61;71.17;101104.03;5059907;28;46091;-63
2021/08/02 04:23:37;;;;;;;;;4.00;4.00;;;;;18.58;71.01;101102.41;5060286;28;45410;-63
2021/08/02 04:26:02;;;;;;;;;4.75;4.75;;;;;18.54;71.79;101106.16;5060387;28;45493;-63
2021/08/02 04:28:28;;;;;;;;;6.00;6.00;;;;;18.54;72.00;101108.78;5060716;28;45417;-63
2021/08/02 04:30:53;;;;;;;;;7.25;5.75;;;;;18.55;72.10;101110.47;5060001;28;45379;-63
2021/08/02 04:33:19;;;;;;;;;6.75;5.50;;;;;18.54;71.47;101112.28;5059896;28;45305;-63
2021/08/02 04:35:44;;;;;;;;;20.00;16.00;;;;;18.56;71.81;101117.44;5059803;28;45310;-63
2021/08/02 04:38:10;;;;;;;;;8.25;7.00;;;;;18.55;71.99;101113.97;5060608;28;45480;-63
2021/08/02 04:40:36;;;;;;;;;6.75;5.25;;;;;18.56;71.34;101112.19;5059696;28;45543;-59
2021/08/02 04:43:01;;;;;;;;;7.50;5.50;;;;;18.55;71.68;101110.47;5059338;28;45902;-62
2021/08/02 04:45:27;;;;;;;;;5.00;5.00;;;;;18.53;71.68;101109.72;5058217;28;45474;-62
2021/08/02 04:47:52;;;;;;;;;6.00;5.75;;;;;18.53;71.36;101107.09;5058388;28;45288;-62
2021/08/02 04:50:18;;;;;;;;;5.00;5.00;;;;;18.55;71.25;101107.84;5056675;28;45441;-62
2021/08/02 04:52:44;;;;;;;;;5.25;5.25;;;;;18.61;70.97;101102.25;5057059;28;45289;-62
2021/08/02 04:55:10;;;;;;;;;6.50;4.75;;;;;18.67;70.89;101101.97;5057749;28;45698;-63
2021/08/02 04:57:35;;;;;;;;;5.00;5.00;;;;;18.68;71.06;101097.53;5058452;28;45403;-62
2021/08/02 05:00:01;;;;;;;;;7.25;5.00;;;;;18.68;70.72;101098.38;5059101;28;46045;-62
2021/08/02 05:02:26;;;;;;;;;9.25;6.50;;;;;18.67;70.71;101093.22;5059870;28;45416;-63
2021/08/02 05:04:52;;;;;;;;;4.50;4.50;;;;;18.69;70.78;101100.09;5059227;28;45346;-62
2021/08/02 05:07:17;;;;;;;;;5.75;5.00;;;;;18.66;70.74;101108.16;5059304;28;45436;-64
2021/08/02 05:09:43;;;;;;;;;7.25;6.50;;;;;18.67;71.48;101112.50;5058983;28;45376;-64
2021/08/02 05:12:08;;;;;;;;;12.00;7.25;;;;;18.66;71.26;101110.78;5058918;28;45352;-63
2021/08/02 05:14:33;;;;;;;;;8.75;6.75;;;;;18.71;71.42;101115.78;5058763;28;45311;-63
2021/08/02 05:16:59;;;;;;;;;12.25;9.00;;;;;18.78;71.10;101114.50;5058842;28;45577;-64
2021/08/02 05:19:24;;;;;;;;;7.25;5.00;;;;;18.87;70.71;101118.44;5058112;28;45243;-64
2021/08/02 05:21:49;;;;;;;;;8.00;6.00;;;;;18.84;71.19;101111.56;5058881;28;45306;-64
2021/08/02 05:24:15;;;;;;;;;12.00;7.50;;;;;18.87;71.61;101114.00;5058411;28;45341;-64
2021/08/02 05:26:40;;;;;;;;;8.25;6.25;;;;;18.89;70.93;101117.41;5058842;28;45444;-64
2021/08/02 05:29:06;;;;;;;;;11.25;10.00;;;;;18.87;71.72;101127.19;5058934;28;47188;-64
2021/08/02 05:31:31;;;;;;;;;13.00;12.00;;;;;18.96;71.87;101133.69;5058852;28;45321;-64
2021/08/02 05:33:56;;;;;;;;;8.00;7.00;;;;;19.03;71.23;101127.19;5057369;28;45259;-63
2021/08/02 05:36:22;;;;;;;;;7.75;6.50;;;;;19.08;70.79;101125.97;5059268;28;45432;-64
2021/08/02 05:38:48;;;;;;;;;7.25;7.25;;;;;19.11;70.99;101130.22;5058978;28;46281;-62
2021/08/02 05:41:13;;;;;;;;;9.25;6.00;;;;;19.13;70.90;101129.19;5059243;28;45241;-62
2021/08/02 05:43:38;;;;;;;;;5.25;5.25;;;;;19.12;71.05;101132.75;5058748;28;45450;-62
2021/08/02 05:46:05;;;;;;;;;7.00;6.25;;;;;19.15;70.63;101129.94;5058687;28;45278;-63
2021/08/02 05:48:30;;;;;;;;;7.00;5.75;;;;;19.23;70.22;101126.03;5058456;28;46191;-63
2021/08/02 05:50:56;;;;;;;;;12.75;8.00;;;;;19.31;70.33;101127.28;5058668;28;45242;-64
2021/08/02 05:53:21;;;;;;;;;13.75;8.00;;;;;19.36;70.40;101132.28;5059461;28;45235;-62
2021/08/02 05:55:46;;;;;;;;;8.25;6.75;;;;;19.41;69.78;101135.50;5059167;28;45265;-62
2021/08/02 05:58:12;;;;;;;;;11.00;8.00;;;;;19.47;69.44;101136.94;5058692;28;46277;-62
2021/08/02 06:00:38;;;;;;;;;11.50;8.50;;;;;19.50;69.76;101137.63;5059010;28;45247;-62
2021/08/02 06:03:03;;;;;;;;;7.25;4.50;;;;;19.59;69.78;101130.97;5058464;28;45295;-64
2021/08/02 06:05:29;;;;;;;;;8.25;7.50;;;;;19.67;69.10;101126.97;5062339;28;45272;-64
2021/08/02 06:07:54;;;;;;;;;6.75;5.50;;;;;19.74;68.91;101136.19;5062003;28;45435;-65
2021/08/02 06:10:20;;;;;;;;;7.00;6.50;;;;;19.71;69.25;101131.09;5062186;28;45482;-64
2021/08/02 06:12:45;;;;;;;;;6.75;4.50;;;;;19.80;68.35;101129.69;5061913;28;45402;-64
2021/08/02 06:15:11;;;;;;;;;7.00;7.00;;;;;19.84;68.29;101133.03;5061874;28;45506;-63
2021/08/02 06:17:36;;;;;;;;;7.75;7.00;;;;;19.83;68.39;101128.69;5061651;28;45462;-64
2021/08/02 06:20:03;;;;;;;;;12.00;7.25;;;;;19.90;68.32;101130.00;5061923;28;45211;-64
2021/08/02 06:22:29;;;;;;;;;20.75;20.75;;;;;19.93;68.19;101135.94;5061936;28;45489;-64
2021/08/02 06:24:54;;;;;;;;;28.75;23.00;;;;;20.00;67.97;101139.06;5062130;28;45224;-63
2021/08/02 06:27:19;;;;;;;;;10.00;8.00;;;;;20.05;67.63;101142.28;5061667;28;46290;-64
2021/08/02 06:29:45;;;;;;;;;9.25;8.25;;;;;20.07;67.76;101139.56;5061855;28;45298;-63
2021/08/02 06:32:10;;;;;;;;;18.75;10.25;;;;;20.09;67.88;101135.88;5061334;28;45205;-63
2021/08/02 06:34:35;;;;;;;;;12.50;8.00;;;;;20.14;67.71;101139.06;5061896;28;46222;-63
2021/08/02 06:37:01;;;;;;;;;11.50;6.25;;;;;20.17;67.13;101132.75;5061442;28;46099;-66
2021/08/02 06:39:26;;;;;;;;;17.00;11.00;;;;;20.18;67.69;101148.50;5061692;28;45204;-67
2021/08/02 06:41:52;;;;;;;;;12.50;7.50;;;;;20.24;67.55;101142.03;5061930;28;45152;-67
2021/08/02 06:44:17;;;;;;;;;11.00;8.25;;;;;20.34;67.11;101143.97;5061508;28;45321;-63
2021/08/02 06:46:43;;;;;;;;;9.00;8.00;;;;;20.48;66.74;101147.59;5060970;28;45347;-65
2021/08/02 06:49:08;;;;;;;;;7.00;5.50;;;;;20.52;66.50;101144.66;5060016;28;45740;-66
2021/08/02 06:51:33;;;;;;;;;8.75;6.75;;;;;20.57;65.82;101147.88;5061157;28;45403;-64
2021/08/02 06:53:59;;;;;;;;;9.25;7.25;;;;;20.57;66.07;101147.88;5061350;28;45435;-64
2021/08/02 06:56:24;;;;;;;;;9.50;7.25;;;;;20.64;65.83;101161.56;5061257;28;45993;-63
2021/08/02 06:58:50;;;;;;;;;9.50;8.50;;;;;20.63;65.75;101167.78;5060616;28;45553;-63
2021/08/02 07:01:16;;;;;;;;;15.75;10.00;;;;;20.62;65.80;101163.41;5061340;28;45325;-62
2021/08/02 07:03:41;;;;;;;;;10.50;9.00;;;;;20.58;66.04;101157.47;5061117;28;45256;-66
2021/08/02 07:06:06;;;;;;;;;9.00;7.00;;;;;20.58;65.58;101159.28;5060772;28;46953;-62
2021/08/02 07:08:32;;;;;;;;;7.75;7.75;;;;;20.73;65.44;101155.69;5061097;28;45383;-62
2021/08/02 07:10:58;;;;;;;;;8.00;7.25;;;;;20.84;65.03;101157.66;5061273;28;45397;-63
2021/08/02 07:13:23;;;;;;;;;9.75;7.75;;;;;20.83;64.96;101156.81;5061072;28;45493;-65
2021/08/02 07:15:49;;;;;;;;;7.75;7.75;;;;;20.86;64.68;101153.97;5059697;28;45576;-64
2021/08/02 07:18:14;;;;;;;;;9.25;9.00;;;;;20.95;65.08;101160.44;5060709;28;45385;-63
2021/08/02 07:20:40;;;;;;;;;8.00;8.00;;;;;21.08;64.40;101155.22;5059593;28;45273;-62
2021/08/02 07:23:06;;;;;;;;;11.00;9.00;;;;;21.28;64.32;101161.88;5060922;28;45287;-63
2021/08/02 07:25:31;;;;;;;;;11.00;10.00;;;;;21.33;63.73;101159.78;5060787;28;46397;-62
2021/08/02 07:27:57;;;;;;;;;14.00;9.00;;;;;21.31;63.49;101159.88;5061118;28;45374;-63
2021/08/02 07:30:22;;;;;;;;;6.75;6.00;;;;;21.26;63.29;101159.34;5060960;28;45300;-59
2021/08/02 07:32:47;;;;;;;;;10.00;6.00;;;;;21.22;63.21;101158.69;5060591;28;47354;-59
2021/08/02 07:35:13;;;;;;;;;7.00;4.00;;;;;21.28;63.37;101162.72;5060546;28;45609;-59
2021/08/02 07:37:39;;;;;;;;;7.50;7.00;;;;;21.32;63.55;101161.59;5061066;28;45361;-58
2021/08/02 07:40:05;;;;;;;;;9.00;6.50;;;;;21.43;62.94;101160.88;5060790;28;45287;-61
2021/08/02 07:42:31;;;;;;;;;12.50;8.50;;;;;21.48;62.37;101153.50;5068522;28;45314;-61
2021/08/02 07:44:56;;;;;;;;;11.75;7.75;;;;;21.61;62.92;101162.28;5063964;28;45980;-62
2021/08/02 07:47:22;;;;;;;;;7.25;5.00;;;;;21.67;62.08;101163.69;5060410;28;45341;-62
2021/08/02 07:49:47;;;;;;;;;6.50;4.75;;;;;21.64;62.04;101156.81;5060570;28;45516;-61
2021/08/02 07:52:12;;;;;;;;;6.75;5.25;;;;;21.68;61.77;101162.75;5060680;28;45562;-60
2021/08/02 07:54:38;;;;;;;;;11.75;8.25;;;;;21.76;62.12;101171.84;5060479;28;46103;-63
2021/08/02 07:57:03;;;;;;;;;11.00;7.50;;;;;21.90;61.76;101165.63;5060499;28;45341;-60
2021/08/02 07:59:29;;;;;;;;;20.00;15.00;;;;;21.97;61.24;101173.97;5060514;28;45300;-62
2021/08/02 08:01:54;;;;;;;;;9.75;6.00;;;;;22.06;61.27;101170.75;5060233;28;45573;-62
2021/08/02 08:04:19;;;;;;;;;7.50;6.75;;;;;22.16;60.51;101172.66;5060347;28;45307;-63
2021/08/02 08:06:46;;;;;;;;;5.00;5.00;;;;;22.07;60.12;101173.28;5060268;28;45370;-59
2021/08/02 08:09:12;;;;;;;;;8.75;7.00;;;;;21.95;60.30;101163.50;5060593;28;45227;-59
2021/08/02 08:11:37;;;;;;;;;6.00;6.00;;;;;21.90;60.65;101156.84;5058530;28;45368;-60
2021/08/02 08:14:03;;;;;;;;;6.75;5.00;;;;;21.95;60.73;101166.16;5060141;28;45381;-61
2021/08/02 08:16:28;;;;;;;;;8.75;7.00;;;;;22.04;60.27;101160.28;5059955;28;45358;-61
2021/08/02 08:18:55;;;;;;;;;7.00;5.00;;;;;22.14;59.98;101166.63;5060199;28;45487;-60
2021/08/02 08:21:20;;;;;;;;;9.00;6.00;;;;;22.15;59.85;101162.16;5060056;28;45254;-59
2021/08/02 08:23:45;;;;;;;;;8.75;7.75;;;;;22.21;60.12;101164.38;5060307;28;45452;-59
2021/08/02 08:26:11;;;;;;;;;7.00;6.50;;;;;22.37;59.00;101158.88;5051675;28;46678;-60
2021/08/02 08:28:36;;;;;;;;;7.25;6.25;;;;;22.35;58.78;101152.84;5044639;28;45466;-62
2021/08/02 08:31:02;;;;;;;;;6.75;6.25;;;;;22.30;58.98;101155.81;5059392;28;45302;-62
2021/08/02 08:33:27;;;;;;;;;5.75;5.00;;;;;22.41;59.17;101155.03;5051527;28;46061;-65
2021/08/02 08:35:54;;;;;;;;;10.25;9.50;;;;;22.60;58.62;101158.09;5059020;28;45307;-61
2021/08/02 08:38:20;;;;;;;;;7.75;6.25;;;;;22.69;57.74;101152.16;5060113;28;45196;-64
2021/08/02 08:40:46;;;;;;;;;6.25;6.25;;;;;22.71;57.37;101155.53;5059634;28;45386;-65
2021/08/02 08:43:16;;;;;;;;;11.75;9.00;;;;;22.83;57.61;101147.69;5058684;28;45459;-63
2021/08/02 08:45:42;;;;;;;;;8.25;7.00;;;;;22.93;56.74;101148.72;5058272;28;45641;-63
2021/08/02 08:48:07;;;;;;;;;7.00;6.25;;;;;22.92;56.75;101147.88;5060007;28;45813;-63
2021/08/02 08:50:36;;;;;;;;;12.00;7.00;;;;;23.02;56.57;101154.19;5059628;28;45244;-66
2021/08/02 08:53:01;;;;;;;;;12.00;8.00;;;;;23.06;55.42;101154.81;5058590;28;46270;-63
2021/08/02 08:55:27;;;;;;;;;9.00;8.00;;;;;23.03;55.64;101158.56;5058667;28;45353;-64
2021/08/02 08:57:52;;;;;;;;;13.00;9.25;;;;;23.06;56.33;101162.78;5057479;28;45378;-61
2021/08/02 09:00:27;;;;;;;;;7.50;7.50;;;;;23.08;55.17;101162.66;5057131;28;45405;-62
2021/08/02 09:02:54;;;;;;;;;2.00;0.00;;;;;23.03;54.69;101161.19;5057732;28;46330;-64
2021/08/02 09:05:20;;;;;;;;;6.00;6.00;;;;;23.02;55.29;101158.63;5057210;28;45823;-64
2021/08/02 09:07:46;;;;;;;;;7.50;7.50;;;;;23.06;54.34;101165.44;5056885;28;45540;-64
2021/08/02 09:10:16;;;;;;;;;6.75;6.25;;;;;23.20;54.79;101164.41;5058065;28;45548;-64
2021/08/02 09:12:55;;;;;;;;;8.00;7.00;;;;;23.33;53.83;101166.03;5058204;28;46639;-64
2021/08/02 09:15:41;;;;;;;;;7.50;4.50;;;;;23.34;52.70;101167.72;5058566;28;45322;-65
2021/08/02 09:18:09;;;;;;;;;7.00;6.00;;;;;23.29;52.83;101161.94;5057844;28;45372;-64
2021/08/02 09:20:37;;;;;;;;;9.25;6.75;;;;;23.25;53.20;101164.94;5058639;28;45258;-63
2021/08/02 09:23:12;;;;;;;;;8.50;5.25;;;;;23.20;53.79;101156.44;5058593;28;46232;-63
2021/08/02 09:25:51;;;;;;;;;5.75;5.00;;;;;23.24;53.40;101155.28;5057912;28;45789;-63
2021/08/02 09:28:22;;;;;;;;;5.50;5.50;;;;;23.38;53.84;101163.88;5057466;28;45407;-63
2021/08/02 09:30:56;;;;;;;;;1.50;1.50;;;;;23.65;53.44;101155.72;5058417;28;45396;-64
2021/08/02 09:33:23;;;;;;;;;8.00;5.00;;;;;23.87;53.18;101154.09;5058543;28;47521;-64
2021/08/02 09:35:51;;;;;;;;;5.75;5.25;;;;;24.06;52.52;101153.50;5058220;28;45502;-63
2021/08/02 09:38:20;;;;;;;;;6.00;6.00;;;;;24.27;52.15;101157.16;5059204;28;45333;-65
2021/08/02 09:40:51;;;;;;;;;6.00;4.00;;;;;24.41;51.49;101143.63;5061560;28;45591;-64
2021/08/02 09:43:22;;;;;;;;;8.25;5.50;;;;;24.46;49.95;101144.13;5061637;28;46321;-64
2021/08/02 09:45:58;;;;;;;;;7.00;4.00;;;;;24.24;50.03;101155.59;5061630;28;45620;-64
2021/08/02 09:48:36;;;;;;;;;5.50;5.00;;;;;24.17;50.71;101150.84;5062295;28;45255;-64
2021/08/02 09:51:19;;;;;;;;;6.00;5.00;;;;;24.26;49.48;101153.66;5062162;28;45509;-64
2021/08/02 09:53:52;;;;;;;;;7.25;6.25;;;;;24.26;50.12;101139.53;5060465;28;45589;-64
2021/08/02 09:56:24;;;;;;;;;6.25;5.00;;;;;24.31;49.53;101150.66;5061777;28;45336;-65
2021/08/02 09:58:50;;;;;;;;;7.75;6.75;;;;;24.22;50.25;101146.84;5061832;28;45249;-64
2021/08/02 10:01:20;;;;;;;;;4.00;4.00;;;;;24.30;50.28;101158.75;5061518;28;45450;-64
2021/08/02 10:03:46;;;;;;;;;3.25;3.25;;;;;24.29;48.16;101144.63;5058348;28;46196;-64
2021/08/02 10:06:13;;;;;;;;;14.75;10.25;;;;;24.12;48.38;101139.75;5062055;28;45479;-64
2021/08/02 10:08:40;;;;;;;;;5.00;5.00;;;;;24.09;49.71;101134.69;5061740;28;45439;-64
2021/08/02 10:11:06;;;;;;;;;3.75;3.75;;;;;24.28;49.87;101132.28;5061867;28;45419;-64
2021/08/02 10:13:35;;;;;;;;;4.00;4.00;;;;;24.47;47.53;101132.53;5061966;28;46596;-64
2021/08/02 10:16:04;;;;;;;;;4.25;4.25;;;;;24.55;48.11;101134.56;5061313;28;45329;-64
2021/08/02 10:18:30;;;;;;;;;7.50;5.00;;;;;24.63;47.50;101145.47;5061814;28;45242;-64
2021/08/02 10:21:03;;;;;;;;;7.50;6.25;;;;;24.62;48.22;101137.59;5060980;28;45220;-64
2021/08/02 10:23:29;;;;;;;;;5.00;4.00;;;;;24.66;46.69;101134.56;5061067;28;46229;-63
2021/08/02 10:25:54;;;;;;;;;3.75;3.75;;;;;24.49;45.96;101137.72;5061271;28;45156;-66
2021/08/02 10:28:20;;;;;;;;;3.50;3.00;;;;;24.39;47.07;101132.28;5060933;28;45468;-65
2021/08/02 10:31:03;;;;;;;;;4.75;3.50;;;;;24.42;46.70;101141.81;5060936;28;45505;-64
2021/08/02 10:33:47;;;;;;;;;5.00;4.75;;;;;24.18;47.81;101129.47;5059674;28;45423;-66
2021/08/02 10:36:18;;;;;;;;;5.25;4.50;;;;;24.10;47.85;101134.56;5060222;28;45287;-65
2021/08/02 10:38:45;;;;;;;;;6.50;5.00;;;;;23.93;48.38;101135.03;5060924;28;45411;-63
2021/08/02 10:41:10;;;;;;;;;8.25;6.00;;;;;23.81;49.29;101142.09;5060752;28;45331;-62
2021/08/02 10:43:40;;;;;;;;;4.75;4.50;;;;;23.85;48.66;101137.44;5075126;28;46233;-64
2021/08/02 10:46:21;;;;;;;;;4.75;4.75;;;;;23.82;48.73;101138.47;5060311;28;45670;-64
2021/08/02 10:48:48;;;;;;;;;4.50;4.25;;;;;23.78;49.02;101134.38;5059308;28;45315;-63
2021/08/02 10:51:19;;;;;;;;;4.50;4.00;;;;;23.79;48.75;101133.41;5058819;28;45417;-63
2021/08/02 10:53:56;;;;;;;;;5.50;4.50;;;;;23.92;46.71;101131.53;5059659;28;46265;-63
2021/08/02 10:56:40;;;;;;;;;4.75;4.00;;;;;24.01;46.49;101129.09;5058392;28;45773;-61
2021/08/02 10:59:05;;;;;;;;;5.00;5.00;;;;;24.19;46.94;101128.50;5058860;28;45481;-60
2021/08/02 11:01:30;;;;;;;;;7.25;6.50;;;;;24.33;46.76;101126.63;5059314;28;45860;-61
2021/08/02 11:04:09;;;;;;;;;6.75;5.25;;;;;24.60;46.90;101128.88;5059613;28;45525;-60
2021/08/02 11:06:34;;;;;;;;;5.25;5.25;;;;;25.00;46.37;101130.03;5055786;28;45189;-60
2021/08/02 11:08:59;;;;;;;;;12.00;7.50;;;;;25.28;46.32;101131.28;5059667;28;45314;-60
2021/08/02 11:11:30;;;;;;;;;5.75;5.75;;;;;25.41;45.30;101128.44;5058843;28;45464;-63
2021/08/02 11:14:20;;;;;;;;;8.00;8.00;;;;;25.57;44.63;101138.63;5055771;28;46119;-61
2021/08/02 11:16:50;;;;;;;;;7.75;7.00;;;;;25.67;45.13;101131.59;5057971;28;45490;-64
2021/08/02 11:19:28;;;;;;;;;4.75;4.75;;;;;25.73;44.75;101125.75;5074886;28;45492;-61
2021/08/02 11:22:02;;;;;;;;;6.25;3.00;;;;;25.63;43.90;101122.13;5058414;28;45234;-60
2021/08/02 11:24:30;;;;;;;;;5.00;5.00;;;;;25.48;44.59;101122.47;5058172;28;46014;-60
2021/08/02 11:27:01;;;;;;;;;5.00;4.00;;;;;25.39;44.66;101115.25;5058475;28;46012;-60